Time;durP1;ratioP1;P1;durP2;ratioP2;P2;SDS_P1;SDS_P2;PMS_P1;PMS_P2;Temp;Humidity;BMP_temperature;BMP_pressure;BME280_temperature;BME280_humidity;BME280_pressure;Samples;Min_cycle;Max_cycle;Signal;HPM_P1;HPM_P2
2023/02/21 02:17:45;;;;;;;13.93;6.35;;;8.50;99.90;;;;;;10058345;28;20036;-62
2023/02/21 02:22:50;;;;;;;14.15;5.68;;;8.40;99.90;;;;;;10078076;28;20034;-60
2023/02/21 02:28:00;;;;;;;8.57;5.30;;;8.30;99.90;;;;;;10062874;28;20677;-65
2023/02/21 02:32:51;;;;;;;5.78;4.15;;;8.30;99.90;;;;;;10057809;28;20243;-65
2023/02/21 02:38:14;;;;;;;8.57;4.40;;;8.20;99.90;;;;;;10058319;28;20276;-66
2023/02/21 02:43:26;;;;;;;6.93;3.83;;;8.10;99.90;;;;;;9997475;28;20045;-62
2023/02/21 02:48:29;;;;;;;9.15;4.65;;;8.10;99.90;;;;;;10056871;28;20050;-62
2023/02/21 02:53:25;;;;;;;8.32;4.75;;;8.10;99.90;;;;;;10069737;28;20077;-63
2023/02/21 02:58:19;;;;;;;12.00;5.47;;;8.10;99.90;;;;;;10065045;28;20025;-64
2023/02/21 03:03:28;;;;;;;9.18;4.32;;;8.10;99.90;;;;;;10056930;28;20311;-61
2023/02/21 03:08:34;;;;;;;9.60;4.70;;;8.10;99.90;;;;;;10057576;28;20390;-62
2023/02/21 03:13:54;;;;;;;5.05;3.53;;;8.00;99.90;;;;;;10063005;28;20048;-63
2023/02/21 03:18:57;;;;;;;6.30;3.92;;;8.10;99.90;;;;;;10065036;28;20057;-64
2023/02/21 03:23:51;;;;;;;6.10;3.75;;;8.00;99.90;;;;;;10077907;28;20025;-63
2023/02/21 03:28:43;;;;;;;6.63;3.67;;;8.00;99.90;;;;;;10076308;28;20044;-65
2023/02/21 03:33:34;;;;;;;7.50;4.78;;;7.90;99.90;;;;;;10061958;28;20033;-62
2023/02/21 03:38:30;;;;;;;7.65;3.53;;;8.00;99.90;;;;;;10063574;28;20026;-63
2023/02/21 03:43:21;;;;;;;4.07;3.35;;;8.00;99.90;;;;;;10072469;28;20061;-62
2023/02/21 03:48:12;;;;;;;6.63;3.97;;;7.80;99.90;;;;;;10062731;28;20091;-62
2023/02/21 03:53:03;;;;;;;5.75;3.70;;;7.70;99.90;;;;;;10075431;28;20064;-63
2023/02/21 03:57:53;;;;;;;6.63;3.10;;;7.70;99.90;;;;;;10067584;28;20462;-64
2023/02/21 04:02:44;;;;;;;5.38;2.95;;;7.70;99.90;;;;;;10060232;28;20059;-66
2023/02/21 04:07:35;;;;;;;6.50;3.53;;;7.60;99.90;;;;;;10069355;28;20347;-66
2023/02/21 04:12:25;;;;;;;3.75;2.53;;;7.60;99.90;;;;;;10071212;28;20044;-62
2023/02/21 04:17:16;;;;;;;3.85;2.92;;;7.50;99.90;;;;;;10045368;28;20488;-65
2023/02/21 04:22:07;;;;;;;5.45;3.20;;;7.40;99.90;;;;;;10076518;28;20116;-66
2023/02/21 04:26:58;;;;;;;4.75;3.67;;;7.40;99.90;;;;;;10101060;28;20036;-63
2023/02/21 04:31:48;;;;;;;6.60;3.88;;;7.40;99.90;;;;;;10046236;28;20033;-64
2023/02/21 04:36:39;;;;;;;7.43;3.42;;;7.40;99.90;;;;;;10061915;28;20018;-65
2023/02/21 04:41:30;;;;;;;8.40;2.85;;;7.30;99.90;;;;;;10060561;28;20026;-68
2023/02/21 04:46:21;;;;;;;5.68;3.22;;;7.40;99.90;;;;;;10060785;28;20026;-66
2023/02/21 04:51:12;;;;;;;4.35;2.88;;;7.30;99.90;;;;;;10060250;28;20473;-69
2023/02/21 04:56:04;;;;;;;5.38;3.03;;;7.20;99.90;;;;;;10063018;28;20037;-66
2023/02/21 05:00:54;;;;;;;5.35;3.45;;;7.20;99.90;;;;;;10064218;28;20414;-63
2023/02/21 05:05:45;;;;;;;3.53;2.20;;;7.20;99.90;;;;;;10064994;28;20025;-65
2023/02/21 05:10:36;;;;;;;7.40;3.30;;;7.20;99.90;;;;;;10059794;28;20116;-65
2023/02/21 05:15:26;;;;;;;6.75;2.85;;;7.10;99.90;;;;;;10073678;28;20128;-65
2023/02/21 05:20:17;;;;;;;8.85;3.45;;;7.10;99.90;;;;;;10064588;28;20112;-63
2023/02/21 05:25:22;;;;;;;8.00;3.63;;;7.00;99.90;;;;;;10094686;28;20513;-63
2023/02/21 05:30:16;;;;;;;9.98;3.72;;;7.00;99.90;;;;;;10063988;28;20197;-67
2023/02/21 05:35:07;;;;;;;6.20;3.30;;;7.00;99.90;;;;;;10071546;28;20033;-64
2023/02/21 05:39:58;;;;;;;7.28;3.50;;;7.00;99.90;;;;;;10059143;28;20075;-62
2023/02/21 05:44:49;;;;;;;5.30;4.43;;;6.80;99.90;;;;;;10058496;28;20506;-67
2023/02/21 05:49:40;;;;;;;7.50;3.58;;;6.90;99.90;;;;;;10058301;28;20128;-62
2023/02/21 05:54:31;;;;;;;7.20;3.92;;;6.80;99.90;;;;;;10070799;28;20057;-61
2023/02/21 05:59:22;;;;;;;6.75;3.40;;;6.70;99.90;;;;;;10065397;28;20029;-62
2023/02/21 06:04:13;;;;;;;5.55;3.15;;;6.70;99.90;;;;;;10058019;28;20033;-64
2023/02/21 06:09:05;;;;;;;5.07;3.70;;;6.70;99.90;;;;;;10058957;28;20431;-62
2023/02/21 06:13:57;;;;;;;4.18;3.00;;;6.70;99.90;;;;;;10065942;28;20033;-62
2023/02/21 06:18:53;;;;;;;3.63;2.80;;;6.60;99.90;;;;;;10059460;28;20471;-61
2023/02/21 06:23:44;;;;;;;4.35;3.03;;;6.60;99.90;;;;;;10085903;28;20511;-62
2023/02/21 06:28:34;;;;;;;7.78;3.55;;;6.50;99.90;;;;;;10075148;28;20282;-62
2023/02/21 06:33:25;;;;;;;3.83;2.67;;;6.40;99.90;;;;;;10057685;28;20037;-62
2023/02/21 06:38:16;;;;;;;7.72;3.25;;;6.40;99.90;;;;;;10057587;28;20192;-60
2023/02/21 06:43:06;;;;;;;3.45;2.88;;;6.40;99.90;;;;;;10039975;28;20037;-61
2023/02/21 06:47:57;;;;;;;4.40;3.30;;;6.50;99.90;;;;;;10059742;28;20021;-63
2023/02/21 06:52:48;;;;;;;6.72;3.95;;;6.50;99.90;;;;;;10076875;28;20092;-62
2023/02/21 06:57:38;;;;;;;3.78;2.70;;;6.40;99.90;;;;;;10070926;28;20032;-63
2023/02/21 07:02:29;;;;;;;8.40;3.92;;;6.40;99.90;;;;;;10056650;28;20571;-62
2023/02/21 07:07:20;;;;;;;9.93;3.13;;;6.40;99.90;;;;;;10062333;28;20029;-64
2023/02/21 07:12:11;;;;;;;7.63;4.28;;;6.40;99.90;;;;;;10073833;28;20045;-61
2023/02/21 07:17:01;;;;;;;7.28;3.83;;;6.40;99.90;;;;;;10069625;28;20025;-65
2023/02/21 07:21:52;;;;;;;6.82;4.10;;;6.40;99.90;;;;;;10060557;28;20025;-68
2023/02/21 07:26:43;;;;;;;8.60;4.47;;;6.50;99.90;;;;;;10094552;28;20398;-65
2023/02/21 07:31:33;;;;;;;9.57;4.55;;;6.50;99.90;;;;;;10061619;28;20033;-65
2023/02/21 07:36:24;;;;;;;10.40;4.30;;;6.50;99.90;;;;;;10061923;28;20083;-63
2023/02/21 07:41:16;;;;;;;8.68;4.53;;;6.50;99.90;;;;;;10066430;28;20039;-65
2023/02/21 07:46:13;;;;;;;7.45;4.50;;;6.40;99.90;;;;;;10063680;28;20487;-61
2023/02/21 07:51:09;;;;;;;8.00;4.88;;;6.50;99.90;;;;;;10045969;28;20041;-64
2023/02/21 07:56:00;;;;;;;;;;;6.60;99.90;;;;;;10067005;28;20128;-68
2023/02/21 08:00:51;;;;;;;11.02;3.97;;;6.70;99.90;;;;;;10061201;28;20450;-64
2023/02/21 08:05:41;;;;;;;11.68;5.93;;;6.70;99.90;;;;;;10061441;28;20018;-61
2023/02/21 08:10:32;;;;;;;9.48;5.57;;;6.80;99.90;;;;;;10062206;28;20037;-60
2023/02/21 08:15:23;;;;;;;14.00;5.97;;;6.90;99.90;;;;;;10065116;28;20018;-64
2023/02/21 08:20:14;;;;;;;11.13;6.15;;;7.10;99.90;;;;;;10062152;28;20040;-62
2023/02/21 08:25:05;;;;;;;10.23;5.68;;;7.30;99.90;;;;;;10063745;28;20013;-62
2023/02/21 08:29:56;;;;;;;10.90;5.70;;;7.40;99.90;;;;;;10045033;28;20037;-60
2023/02/21 08:34:48;;;;;;;9.00;6.22;;;7.50;99.90;;;;;;10062186;28;20029;-61
2023/02/21 08:39:38;;;;;;;12.48;5.55;;;7.60;99.90;;;;;;10063950;28;20029;-61
2023/02/21 08:44:29;;;;;;;16.00;10.55;;;7.70;99.90;;;;;;10059806;28;20029;-65
2023/02/21 08:49:20;;;;;;;21.27;10.40;;;7.90;99.90;;;;;;10057325;28;20057;-63
2023/02/21 08:54:10;;;;;;;10.77;6.20;;;8.00;99.90;;;;;;10061507;28;20063;-63
2023/02/21 08:59:02;;;;;;;9.43;6.30;;;8.20;99.90;;;;;;10058863;28;20108;-64
2023/02/21 09:03:53;;;;;;;9.07;6.15;;;8.30;99.90;;;;;;10061178;28;20120;-60
2023/02/21 09:08:43;;;;;;;8.90;5.57;;;8.40;99.90;;;;;;10043002;28;20037;-64
2023/02/21 09:13:34;;;;;;;7.68;4.93;;;8.50;99.90;;;;;;10041967;28;20513;-62
2023/02/21 09:18:25;;;;;;;7.47;4.15;;;8.70;99.90;;;;;;10045135;28;20048;-62
2023/02/21 09:23:20;;;;;;;9.95;4.30;;;8.80;99.90;;;;;;10055954;28;20070;-62
2023/02/21 09:28:11;;;;;;;10.60;4.88;;;9.00;99.90;;;;;;10060756;28;20013;-60
2023/02/21 09:33:02;;;;;;;7.25;4.60;;;9.10;99.90;;;;;;10042263;28;20025;-63
2023/02/21 09:37:52;;;;;;;9.93;5.03;;;9.30;99.90;;;;;;10060507;28;20547;-63
2023/02/21 09:42:43;;;;;;;7.75;4.85;;;9.50;99.90;;;;;;10063899;28;20488;-63
2023/02/21 09:47:37;;;;;;;11.30;4.82;;;9.70;99.90;;;;;;10059260;28;20064;-68
2023/02/21 09:52:37;;;;;;;8.50;4.25;;;9.80;99.90;;;;;;10058767;28;20374;-66
2023/02/21 09:57:27;;;;;;;7.97;4.63;;;10.00;99.90;;;;;;10077360;28;20078;-62
2023/02/21 10:02:37;;;;;;;8.35;3.75;;;10.30;99.90;;;;;;10079377;28;20439;-64
2023/02/21 10:07:53;;;;;;;7.75;5.00;;;10.30;99.90;;;;;;10074086;28;20090;-66
2023/02/21 10:12:47;;;;;;;7.50;4.05;;;10.40;99.90;;;;;;10061161;28;20045;-64
2023/02/21 10:17:41;;;;;;;5.63;4.30;;;10.50;99.90;;;;;;10057143;28;20061;-64
2023/02/21 10:22:41;;;;;;;5.85;4.00;;;10.60;99.90;;;;;;10068313;28;20033;-63
2023/02/21 10:27:32;;;;;;;7.20;4.05;;;10.90;99.90;;;;;;10064285;28;20495;-65
2023/02/21 10:32:24;;;;;;;5.50;4.70;;;11.00;99.90;;;;;;10067265;28;20044;-65
2023/02/21 10:37:33;;;;;;;6.90;4.25;;;11.10;99.90;;;;;;10076555;28;20029;-67
2023/02/21 10:42:55;;;;;;;5.10;3.60;;;11.20;99.90;;;;;;10067008;28;20041;-68
2023/02/21 10:47:55;;;;;;;5.72;3.40;;;11.30;99.90;;;;;;10064885;28;20025;-65
2023/02/21 10:52:48;;;;;;;9.95;4.93;;;11.40;99.90;;;;;;10067767;28;20057;-67
2023/02/21 10:57:45;;;;;;;5.85;3.60;;;11.50;99.90;;;;;;10064874;28;20021;-64
2023/02/21 11:02:42;;;;;;;5.38;3.17;;;11.60;99.90;;;;;;10063647;28;20029;-65
2023/02/21 11:07:34;;;;;;;8.15;4.85;;;11.80;99.90;;;;;;10064866;28;20104;-64
2023/02/21 11:12:28;;;;;;;6.28;3.10;;;11.90;99.90;;;;;;10067088;28;20398;-63
2023/02/21 11:17:23;;;;;;;4.90;3.28;;;12.00;99.90;;;;;;10048138;28;20017;-64
2023/02/21 11:22:15;;;;;;;5.50;2.72;;;12.10;99.90;;;;;;10065490;28;20021;-66
2023/02/21 11:27:06;;;;;;;4.97;2.67;;;12.10;99.90;;;;;;10065712;28;20064;-65
2023/02/21 11:31:57;;;;;;;4.95;2.65;;;12.30;99.90;;;;;;10045136;28;20060;-65
2023/02/21 11:36:51;;;;;;;5.93;3.47;;;12.40;99.90;;;;;;10087516;28;20112;-66
2023/02/21 11:41:44;;;;;;;4.50;2.25;;;12.50;99.90;;;;;;10077597;28;20044;-65
2023/02/21 11:46:51;;;;;;;4.95;2.80;;;12.60;99.90;;;;;;10085196;28;20055;-67
2023/02/21 11:51:49;;;;;;;4.60;3.00;;;12.80;99.90;;;;;;10057320;28;20448;-66
2023/02/21 11:56:56;;;;;;;8.18;2.90;;;12.90;99.90;;;;;;10068615;28;20081;-69
2023/02/21 12:02:15;;;;;;;5.25;2.75;;;13.00;99.90;;;;;;10078468;28;20048;-69
2023/02/21 12:07:24;;;;;;;4.93;2.85;;;13.00;99.90;;;;;;10068572;28;20538;-64
2023/02/21 12:12:27;;;;;;;6.63;2.53;;;13.00;99.90;;;;;;10082277;28;20052;-65
2023/02/21 12:17:18;;;;;;;4.50;2.28;;;13.30;99.90;;;;;;10064723;28;20017;-66
2023/02/21 12:22:27;;;;;;;4.78;2.40;;;13.50;99.90;;;;;;10062342;28;20511;-66
2023/02/21 12:27:18;;;;;;;5.63;4.03;;;13.70;99.90;;;;;;10062847;28;20040;-65
2023/02/21 12:32:42;;;;;;;4.40;2.22;;;13.90;99.90;;;;;;10075356;28;20041;-65
2023/02/21 12:37:52;;;;;;;4.00;2.05;;;14.00;99.90;;;;;;10074221;28;20024;-64
2023/02/21 12:42:58;;;;;;;5.63;2.35;;;14.20;99.90;;;;;;10074694;28;20030;-69
2023/02/21 12:47:52;;;;;;;3.60;2.22;;;14.50;99.90;;;;;;10079520;28;20371;-66
2023/02/21 12:53:09;;;;;;;5.43;3.38;;;14.80;99.90;;;;;;10082440;28;20056;-67
2023/02/21 12:58:02;;;;;;;5.03;2.35;;;15.10;99.90;;;;;;10083281;28;20040;-68
2023/02/21 13:03:08;;;;;;;4.25;2.38;;;15.60;99.90;;;;;;10082789;28;20364;-67
2023/02/21 13:08:04;;;;;;;4.68;2.33;;;16.00;99.90;;;;;;10063659;28;20040;-66
2023/02/21 13:13:22;;;;;;;5.85;2.70;;;16.40;99.90;;;;;;10071228;28;20048;-66
2023/02/21 13:18:26;;;;;;;3.97;2.40;;;16.70;99.40;;;;;;10059265;28;20044;-66
2023/02/21 13:24:12;;;;;;;5.30;2.22;;;17.20;99.60;;;;;;10083761;28;20430;-67
2023/02/21 13:29:16;;;;;;;2.63;2.30;;;17.70;99.10;;;;;;10052365;28;20087;-67
2023/02/21 13:34:08;;;;;;;;;;;18.00;99.40;;;;;;10042681;28;20123;-67
2023/02/21 13:39:14;;;;;;;4.22;2.53;;;18.30;98.90;;;;;;10049141;28;19921;-66
2023/02/21 13:44:09;;;;;;;6.32;2.50;;;18.60;99.50;;;;;;10056884;28;20025;-67
2023/02/21 13:49:41;;;;;;;2.33;1.65;;;18.90;99.40;;;;;;10057098;28;20038;-66
2023/02/21 13:54:32;;;;;;;4.15;2.13;;;19.30;98.30;;;;;;10060802;28;20045;-67
2023/02/21 13:59:22;;;;;;;5.65;2.45;;;19.60;98.50;;;;;;10062949;28;20480;-68
2023/02/21 14:04:51;;;;;;;3.53;2.08;;;19.80;98.10;;;;;;10059615;28;20071;-65
2023/02/21 14:09:45;;;;;;;3.47;1.95;;;20.30;96.50;;;;;;10059777;28;20028;-67
2023/02/21 14:14:38;;;;;;;6.97;1.98;;;20.80;96.40;;;;;;10042233;28;20021;-64
2023/02/21 14:19:46;;;;;;;5.45;2.15;;;21.40;95.40;;;;;;10059299;28;20104;-69
2023/02/21 14:24:41;;;;;;;2.42;1.48;;;21.60;93.80;;;;;;10056401;28;20032;-67
2023/02/21 14:29:41;;;;;;;3.53;1.85;;;23.00;92.60;;;;;;10058227;28;20060;-68
2023/02/21 14:34:47;;;;;;;3.13;1.98;;;24.70;90.30;;;;;;10054867;28;20423;-68
2023/02/21 14:39:45;;;;;;;4.40;1.83;;;26.10;84.70;;;;;;10057627;28;20369;-67
2023/02/21 14:44:48;;;;;;;4.95;1.73;;;26.90;80.70;;;;;;10056002;28;20395;-68
2023/02/21 14:49:54;;;;;;;3.92;1.83;;;27.40;76.90;;;;;;10055867;28;20021;-66
2023/02/21 14:54:57;;;;;;;4.00;1.85;;;25.90;73.70;;;;;;10060943;28;20049;-68
2023/02/21 14:59:50;;;;;;;4.57;2.42;;;23.80;74.30;;;;;;10056267;28;20439;-67
2023/02/21 15:05:03;;;;;;;4.57;2.60;;;22.00;74.30;;;;;;10040506;28;20029;-69
2023/02/21 15:10:13;;;;;;;6.15;1.90;;;20.90;73.20;;;;;;10057803;28;20029;-65
2023/02/21 15:15:05;;;;;;;3.45;2.17;;;20.20;72.70;;;;;;10065626;28;20021;-67
2023/02/21 15:20:12;;;;;;;6.22;3.03;;;19.70;72.90;;;;;;10066116;28;20025;-65
2023/02/21 15:25:09;;;;;;;8.13;2.42;;;19.10;73.10;;;;;;10061022;28;20480;-66
2023/02/21 15:30:21;;;;;;;4.05;2.22;;;18.70;73.20;;;;;;10046373;28;20128;-69
2023/02/21 15:35:18;;;;;;;6.22;2.60;;;18.50;73.20;;;;;;10060354;22;20047;-64
2023/02/21 15:40:22;;;;;;;5.03;2.58;;;18.30;73.30;;;;;;10014685;28;20144;-66
2023/02/21 15:45:21;;;;;;;4.22;2.38;;;18.20;73.40;;;;;;10023808;28;20435;-62
2023/02/21 15:50:42;;;;;;;8.57;2.72;;;18.10;73.60;;;;;;10025641;28;20073;-60
2023/02/21 15:55:33;;;;;;;3.38;2.10;;;18.00;73.50;;;;;;10022556;28;20025;-65
2023/02/21 16:00:41;;;;;;;3.67;2.10;;;18.00;73.80;;;;;;10039075;28;20025;-66
2023/02/21 16:05:32;;;;;;;4.60;1.85;;;17.80;73.90;;;;;;10035018;28;20104;-63
2023/02/21 16:10:24;;;;;;;4.95;3.00;;;17.50;74.10;;;;;;10034122;28;20259;-65
2023/02/21 16:15:28;;;;;;;4.80;2.40;;;17.30;74.40;;;;;;10022407;28;20128;-66
2023/02/21 16:20:43;;;;;;;4.78;2.25;;;17.00;74.40;;;;;;10017543;28;20022;-65
2023/02/21 16:25:34;;;;;;;4.03;2.40;;;16.80;74.60;;;;;;10033387;28;20037;-66
2023/02/21 16:30:30;;;;;;;3.95;2.05;;;16.60;75.00;;;;;;10034524;28;20471;-65
2023/02/21 16:35:23;;;;;;;5.80;2.03;;;16.30;75.30;;;;;;10036979;28;20072;-66
2023/02/21 16:40:23;;;;;;;5.35;2.22;;;16.10;75.80;;;;;;10026093;28;20029;-66
2023/02/21 16:45:14;;;;;;;3.35;2.40;;;15.80;76.30;;;;;;10012162;28;20068;-67
2023/02/21 16:50:13;;;;;;;6.35;2.30;;;15.60;76.80;;;;;;10029470;28;20038;-61
2023/02/21 16:55:04;;;;;;;3.97;2.25;;;15.40;77.30;;;;;;10036291;28;20090;-62
2023/02/21 16:59:55;;;;;;;4.68;2.90;;;15.20;77.70;;;;;;10018664;28;20200;-62
2023/02/21 17:04:46;;;;;;;5.93;2.63;;;14.90;78.10;;;;;;10039418;28;20033;-60
2023/02/21 17:09:38;;;;;;;3.60;2.45;;;14.80;78.60;;;;;;10036183;28;20033;-62
2023/02/21 17:14:28;;;;;;;7.28;2.20;;;14.70;79.00;;;;;;10037850;28;20018;-61
2023/02/21 17:19:23;;;;;;;6.15;2.35;;;14.50;79.40;;;;;;10013744;28;20084;-60
2023/02/21 17:24:15;;;;;;;3.10;2.10;;;14.40;79.80;;;;;;10036951;28;20500;-60
2023/02/21 17:29:06;;;;;;;5.57;2.40;;;14.30;80.20;;;;;;10024814;28;20512;-60
2023/02/21 17:33:57;;;;;;;8.30;2.83;;;14.20;80.60;;;;;;10033265;28;20159;-61
2023/02/21 17:38:48;;;;;;;5.72;2.53;;;14.10;81.00;;;;;;10029461;28;20373;-59
2023/02/21 17:43:38;;;;;;;6.38;3.33;;;14.00;81.30;;;;;;10031269;28;20108;-60
2023/02/21 17:48:29;;;;;;;4.50;3.47;;;13.90;81.80;;;;;;10028944;28;20493;-60
2023/02/21 17:53:21;;;;;;;10.32;4.07;;;13.80;82.20;;;;;;10034801;28;20404;-61
2023/02/21 17:58:12;;;;;;;10.27;4.55;;;13.70;82.70;;;;;;10033749;28;20193;-61
2023/02/21 18:03:05;;;;;;;8.60;4.03;;;13.70;83.20;;;;;;10033265;28;20304;-63
2023/02/21 18:07:56;;;;;;;10.55;5.00;;;13.70;83.60;;;;;;10033607;28;20562;-65
2023/02/21 18:12:47;;;;;;;7.60;4.22;;;13.60;84.00;;;;;;10033108;28;20132;-62
2023/02/21 18:17:39;;;;;;;6.38;3.63;;;13.60;84.50;;;;;;10034464;28;20105;-64
2023/02/21 18:22:30;;;;;;;7.82;3.97;;;13.60;84.90;;;;;;10030410;28;20467;-60
2023/02/21 18:27:20;;;;;;;9.02;4.75;;;13.60;85.30;;;;;;10033373;28;20026;-61
2023/02/21 18:32:11;;;;;;;9.38;4.72;;;13.60;85.70;;;;;;10041656;28;20495;-59
2023/02/21 18:37:02;;;;;;;7.90;4.85;;;13.40;86.00;;;;;;10027888;28;20458;-62
2023/02/21 18:41:52;;;;;;;8.35;4.85;;;13.40;86.50;;;;;;9996996;28;20195;-66
2023/02/21 18:46:54;;;;;;;11.18;5.07;;;13.30;86.90;;;;;;10025136;28;20057;-62
2023/02/21 18:51:45;;;;;;;9.25;5.22;;;13.20;87.30;;;;;;10030103;28;20080;-64
2023/02/21 18:56:35;;;;;;;12.00;5.93;;;13.20;87.60;;;;;;10020061;28;20038;-60
2023/02/21 19:01:26;;;;;;;22.52;11.85;;;13.00;87.90;;;;;;10024978;28;20218;-60
2023/02/21 19:06:19;;;;;;;20.20;8.63;;;13.00;88.40;;;;;;10025104;28;20026;-59
2023/02/21 19:11:11;;;;;;;16.98;7.40;;;12.90;88.80;;;;;;10025086;28;20043;-61
2023/02/21 19:16:02;;;;;;;10.88;6.85;;;12.90;89.10;;;;;;10024579;28;20030;-58
2023/02/21 19:20:53;;;;;;;11.35;6.10;;;12.80;89.50;;;;;;10019016;28;20243;-58
2023/02/21 19:25:43;;;;;;;13.85;6.57;;;12.70;89.80;;;;;;10017430;28;20034;-61
2023/02/21 19:30:37;;;;;;;13.57;7.93;;;12.60;90.10;;;;;;9992757;28;20041;-60
2023/02/21 19:35:29;;;;;;;18.55;8.23;;;12.60;90.40;;;;;;10020792;28;20049;-60
2023/02/21 19:40:22;;;;;;;15.85;6.60;;;12.70;90.50;;;;;;10020162;28;20037;-59
2023/02/21 19:45:12;;;;;;;16.65;7.78;;;12.70;90.60;;;;;;10019742;28;20207;-59
2023/02/21 19:50:04;;;;;;;17.38;8.52;;;12.70;90.80;;;;;;10027327;28;20041;-59
2023/02/21 19:54:55;;;;;;;15.85;7.88;;;12.70;91.00;;;;;;10022687;28;20030;-59
2023/02/21 19:59:45;;;;;;;19.55;9.10;;;12.70;91.20;;;;;;10019413;28;20053;-60
2023/02/21 20:04:36;;;;;;;16.58;7.90;;;12.60;91.50;;;;;;10018686;28;20113;-59
2023/02/21 20:09:27;;;;;;;12.75;7.97;;;12.50;91.60;;;;;;9997662;28;20033;-58
2023/02/21 20:14:17;;;;;;;16.70;8.10;;;12.40;91.80;;;;;;10022008;28;20037;-60
2023/02/21 20:19:09;;;;;;;11.70;7.25;;;12.30;91.90;;;;;;10021370;28;20037;-59
2023/02/21 20:24:00;;;;;;;17.83;8.95;;;12.20;92.10;;;;;;10004443;28;20080;-61
2023/02/21 20:28:53;;;;;;;15.88;7.32;;;12.10;92.20;;;;;;10021649;28;20442;-60
2023/02/21 20:33:43;;;;;;;14.25;7.90;;;12.10;92.30;;;;;;10021246;28;20132;-59
2023/02/21 20:38:36;;;;;;;16.27;8.35;;;12.10;92.30;;;;;;10022516;28;20109;-59
2023/02/21 20:43:27;;;;;;;14.68;7.90;;;12.00;92.30;;;;;;10020942;28;20412;-59
2023/02/21 20:48:19;;;;;;;15.68;7.97;;;11.90;92.50;;;;;;10020157;28;20037;-61
2023/02/21 20:53:10;;;;;;;19.83;9.10;;;11.80;92.60;;;;;;10021532;28;20044;-62
2023/02/21 20:58:01;;;;;;;13.27;7.45;;;11.70;92.70;;;;;;10020490;28;20396;-60
2023/02/21 21:02:52;;;;;;;17.10;8.70;;;11.60;92.90;;;;;;10020670;28;20040;-64
2023/02/21 21:07:43;;;;;;;19.13;10.07;;;11.60;93.00;;;;;;10018380;28;20025;-60
2023/02/21 21:12:34;;;;;;;16.27;8.02;;;11.50;93.10;;;;;;10020807;28;20056;-59
2023/02/21 21:17:25;;;;;;;14.88;9.30;;;11.40;93.20;;;;;;10020322;28;20035;-59
2023/02/21 21:22:19;;;;;;;14.77;8.60;;;11.40;93.40;;;;;;10019965;28;20496;-61
2023/02/21 21:27:13;;;;;;;12.93;7.95;;;11.20;93.50;;;;;;10001862;28;20040;-59
2023/02/21 21:32:04;;;;;;;9.57;6.60;;;11.30;93.60;;;;;;9983592;28;20424;-61
2023/02/21 21:36:58;;;;;;;14.05;7.13;;;11.20;93.70;;;;;;10004164;28;20050;-59
2023/02/21 21:42:07;;;;;;;61.28;31.65;;;11.30;93.90;;;;;;10016109;28;20383;-60
2023/02/21 21:46:59;;;;;;;33.25;17.45;;;11.40;94.00;;;;;;10016025;28;20116;-63
2023/02/21 21:51:50;;;;;;;15.25;8.68;;;11.30;94.00;;;;;;10024343;28;20288;-60
2023/02/21 21:56:41;;;;;;;13.90;8.25;;;11.20;94.30;;;;;;10018605;28;20288;-61
2023/02/21 22:01:32;;;;;;;18.30;8.18;;;11.00;94.50;;;;;;10020566;28;20192;-60
2023/02/21 22:06:22;;;;;;;13.82;7.50;;;11.00;94.60;;;;;;10023722;28;20052;-59
2023/02/21 22:11:13;;;;;;;23.35;8.65;;;10.90;94.70;;;;;;10010828;28;20050;-58
2023/02/21 22:16:04;;;;;;;17.17;8.63;;;10.90;95.00;;;;;;10029226;28;20018;-60
2023/02/21 22:20:55;;;;;;;15.98;8.95;;;10.90;95.00;;;;;;10036222;28;20029;-60
2023/02/21 22:25:47;;;;;;;15.65;8.77;;;10.70;95.10;;;;;;10037352;28;20518;-59
2023/02/21 22:30:39;;;;;;;16.20;9.15;;;10.60;95.60;;;;;;10037272;28;20037;-60
2023/02/21 22:35:29;;;;;;;17.25;9.77;;;10.60;95.50;;;;;;10036609;28;20076;-60
2023/02/21 22:40:23;;;;;;;16.83;9.75;;;10.50;95.70;;;;;;10036360;28;20560;-59
2023/02/21 22:45:15;;;;;;;23.08;10.65;;;10.40;95.90;;;;;;10036166;28;20033;-58
2023/02/21 22:50:06;;;;;;;19.85;10.63;;;10.40;96.00;;;;;;10036906;28;20037;-59
2023/02/21 22:54:57;;;;;;;15.93;9.95;;;10.40;96.20;;;;;;10035594;28;20034;-60
2023/02/21 22:59:49;;;;;;;17.52;9.63;;;10.40;96.30;;;;;;10036529;28;20041;-62
2023/02/21 23:04:40;;;;;;;20.60;9.50;;;10.30;96.50;;;;;;10037670;28;20069;-62
2023/02/21 23:09:35;;;;;;;23.17;10.05;;;10.40;96.60;;;;;;10037771;28;20073;-60
2023/02/21 23:14:30;;;;;;;19.77;9.13;;;10.40;96.70;;;;;;10034670;28;20053;-58
2023/02/21 23:19:22;;;;;;;16.85;8.80;;;10.30;96.80;;;;;;10035626;28;20308;-59
2023/02/21 23:24:14;;;;;;;19.00;9.80;;;10.30;97.00;;;;;;10035664;28;20488;-58
2023/02/21 23:29:05;;;;;;;19.52;10.15;;;10.40;97.10;;;;;;10020984;28;20053;-59
2023/02/21 23:33:56;;;;;;;15.00;8.48;;;10.30;97.20;;;;;;10021233;28;20045;-61
2023/02/21 23:38:49;;;;;;;16.88;10.02;;;10.20;97.70;;;;;;10023471;28;20419;-59
2023/02/21 23:43:40;;;;;;;22.35;10.32;;;10.20;97.60;;;;;;10023500;28;20388;-59
2023/02/21 23:48:31;;;;;;;18.58;8.30;;;10.20;97.70;;;;;;10021015;28;20034;-59
2023/02/21 23:53:25;;;;;;;14.65;7.88;;;10.20;97.80;;;;;;10021013;28;20073;-60
2023/02/21 23:58:17;;;;;;;12.90;9.05;;;10.10;97.90;;;;;;10022188;28;20102;-60
